YKK weather

Kitkatla Seaplane Base
Kitkatla, British Columbia, Canada

Public forecast

Using degrees Celsius for public forecast. Weather courtesy of forecast.io.

METAR (pilot weather report)

Closest report is Prince Rupert Airport, 29.2 nm (54.1 km) N. Retrieved 2019/09/19 09:00 UTC (25 minutes ago):

CYPR 190900Z AUTO 14003KT 090V160 9SM -RA BKN049 BKN090 OVC110 12/12 A3002 RMK SLP168

TAF (pilot weather forecast)

Closest forecast is Prince Rupert Airport, 29.2 nm (54.1 km) N. Retrieved 2019/09/19 07:42 UTC (2 hours ago):

TAF CYPR 190638Z 1907/1919 VRB03KT P6SM SCT015 OVC060 TEMPO 1907/1909 P6SM -SHRA BKN015 OVC040 FM190900 13007KT P6SM -RA SCT008 OVC025 TEMPO 1909/1919 3SM -SHRA BR BKN008 OVC020 RMK FCST BASED ON AUTO OBS. NXT FCST BY 191300Z